Time;durP1;ratioP1;P1;durP2;ratioP2;P2;SDS_P1;SDS_P2;PMS_P1;PMS_P2;Temp;Humidity;BMP_temperature;BMP_pressure;BME280_temperature;BME280_humidity;BME280_pressure;Samples;Min_cycle;Max_cycle;Signal;HPM_P1;HPM_P2
2021/04/19 00:00:58;;;;;;;47.75;21.92;;;;;;;5.37;95.82;102260.84;5030158;28;20047;-76
2021/04/19 00:03:24;;;;;;;41.33;20.98;;;;;;;5.34;96.04;102263.59;5017088;28;20135;-80
2021/04/19 00:05:49;;;;;;;43.70;21.35;;;;;;;5.24;95.48;102258.00;5046745;28;20502;-76
2021/04/19 00:08:15;;;;;;;43.60;22.10;;;;;;;5.28;96.32;102247.47;5061370;28;20071;-78
2021/04/19 00:10:42;;;;;;;45.42;22.15;;;;;;;5.17;96.06;102245.38;5046999;28;20049;-78
2021/04/19 00:13:07;;;;;;;39.92;21.40;;;;;;;5.18;95.95;102247.03;5040639;28;20041;-78
2021/04/19 00:15:33;;;;;;;45.47;22.05;;;;;;;5.25;96.08;102254.50;5026909;28;20044;-76
2021/04/19 00:17:59;;;;;;;49.00;23.02;;;;;;;5.26;96.24;102261.38;5032696;28;20567;-78
2021/04/19 00:20:25;;;;;;;45.40;23.38;;;;;;;5.26;96.23;102252.75;5032141;28;20557;-77
2021/04/19 00:22:51;;;;;;;45.67;24.23;;;;;;;5.33;95.90;102264.53;5009757;28;20070;-78
2021/04/19 00:25:17;;;;;;;52.42;25.20;;;;;;;5.42;96.25;102269.25;5031189;28;20036;-80
2021/04/19 00:27:43;;;;;;;44.20;23.50;;;;;;;5.43;95.70;102255.34;5049457;28;20197;-76
2021/04/19 00:30:09;;;;;;;46.67;24.75;;;;;;;5.56;95.89;102262.56;5047735;28;20714;-78
2021/04/19 00:32:35;;;;;;;51.97;25.83;;;;;;;5.63;95.60;102269.13;5031954;28;20063;-77
2021/04/19 00:35:02;;;;;;;55.22;26.67;;;;;;;5.70;95.21;102264.44;5066496;28;20496;-76
2021/04/19 00:37:28;;;;;;;50.00;26.40;;;;;;;5.71;95.40;102266.97;5016291;28;20041;-79
2021/04/19 00:39:54;;;;;;;55.05;27.33;;;;;;;5.70;95.98;102261.84;5009828;28;20040;-78
2021/04/19 00:42:21;;;;;;;53.45;27.73;;;;;;;5.79;95.63;102269.19;5009347;28;20076;-77
2021/04/19 00:44:47;;;;;;;54.67;28.10;;;;;;;5.79;95.35;102264.00;5042733;28;20049;-77
2021/04/19 00:47:13;;;;;;;53.92;27.92;;;;;;;5.74;95.97;102259.00;5042260;28;20158;-75
2021/04/19 00:49:39;;;;;;;57.85;30.77;;;;;;;5.74;95.88;102263.38;5049088;28;20519;-80
2021/04/19 00:52:06;;;;;;;55.67;29.80;;;;;;;5.81;95.54;102264.75;5034051;28;20051;-79
2021/04/19 00:54:32;;;;;;;61.25;29.23;;;;;;;5.83;95.23;102261.13;5013173;28;20040;-77
2021/04/19 00:56:58;;;;;;;58.97;30.10;;;;;;;5.84;95.72;102259.41;5034183;28;20044;-76
2021/04/19 00:59:23;;;;;;;54.55;28.65;;;;;;;5.87;95.22;102255.78;5066441;28;20460;-77
2021/04/19 01:01:49;;;;;;;54.28;28.75;;;;;;;5.89;95.89;102259.97;5023174;28;20804;-78
2021/04/19 01:04:15;;;;;;;48.08;27.70;;;;;;;5.89;95.89;102264.34;5048574;28;20048;-76
2021/04/19 01:06:43;;;;;;;51.88;27.60;;;;;;;5.91;95.50;102263.34;5057928;28;20049;-78
2021/04/19 01:09:09;;;;;;;52.08;27.80;;;;;;;5.93;95.22;102256.28;5011000;28;20059;-78
2021/04/19 01:11:36;;;;;;;57.10;29.13;;;;;;;5.91;95.83;102262.50;5026871;28;20085;-77
2021/04/19 01:14:02;;;;;;;52.97;27.63;;;;;;;5.88;95.85;102258.31;5030954;28;20044;-78
2021/04/19 01:16:30;;;;;;;49.22;27.90;;;;;;;5.87;95.29;102261.00;5012535;28;20040;-78
2021/04/19 01:18:56;;;;;;;52.97;28.10;;;;;;;5.88;95.35;102262.66;5006987;28;20102;-76
2021/04/19 01:21:22;;;;;;;54.85;28.42;;;;;;;5.88;95.36;102260.06;5031953;28;20041;-78
2021/04/19 01:23:49;;;;;;;57.65;28.33;;;;;;;5.89;94.98;102269.56;5029894;28;20052;-79
2021/04/19 01:26:18;;;;;;;57.15;28.00;;;;;;;5.87;95.00;102261.00;5033024;28;20071;-77
2021/04/19 01:28:44;;;;;;;51.03;29.27;;;;;;;5.82;95.23;102269.03;5054949;28;20485;-77
2021/04/19 01:31:11;;;;;;;58.03;30.20;;;;;;;5.83;95.21;102265.50;5041117;28;20433;-78
2021/04/19 01:33:37;;;;;;;55.42;29.50;;;;;;;5.81;95.45;102272.56;5028918;28;20036;-75
2021/04/19 01:36:03;;;;;;;56.45;29.88;;;;;;;5.85;95.18;102263.66;5048056;28;20060;-79
2021/04/19 01:38:29;;;;;;;56.58;30.55;;;;;;;5.88;95.42;102270.47;5034110;28;20521;-77
2021/04/19 01:40:56;;;;;;;63.28;31.85;;;;;;;5.85;95.26;102268.88;5024683;28;20068;-79
2021/04/19 01:43:23;;;;;;;55.40;30.50;;;;;;;5.84;95.19;102268.03;5018953;28;20063;-78
2021/04/19 01:45:53;;;;;;;64.70;32.35;;;;;;;5.85;95.68;102264.50;5049718;28;20044;-77
2021/04/19 01:48:21;;;;;;;51.72;29.33;;;;;;;5.82;95.44;102271.63;5052301;28;20040;-79
2021/04/19 01:50:48;;;;;;;59.35;30.60;;;;;;;5.79;95.94;102275.25;5037710;28;20062;-78
2021/04/19 01:53:15;;;;;;;62.83;32.88;;;;;;;5.78;96.21;102275.31;5015017;28;20032;-76
2021/04/19 01:55:42;;;;;;;59.47;32.30;;;;;;;5.76;96.23;102275.38;5033716;28;20045;-75
2021/04/19 01:58:12;;;;;;;58.45;31.33;;;;;;;5.70;95.93;102275.69;5044455;28;20086;-79
2021/04/19 02:00:41;;;;;;;66.63;33.33;;;;;;;5.65;96.70;102272.47;5046251;28;20033;-75
2021/04/19 02:03:06;;;;;;;67.15;33.10;;;;;;;5.71;96.78;102279.13;5048624;28;20075;-77
2021/04/19 02:05:53;;;;;;;64.40;33.15;;;;;;;5.74;96.46;102273.78;5030037;28;20402;-78
2021/04/19 02:08:29;;;;;;;66.68;32.63;;;;;;;5.69;96.68;102271.44;5064054;28;20104;-78
2021/04/19 02:11:35;;;;;;;66.18;34.25;;;;;;;5.70;97.21;102273.09;5040759;28;20053;-77
2021/04/19 02:14:18;;;;;;;69.20;34.17;;;;;;;5.67;96.62;102268.06;5029474;28;20101;-74
2021/04/19 02:16:54;;;;;;;66.85;35.20;;;;;;;5.61;96.77;102271.81;5042559;28;20036;-75
2021/04/19 02:19:57;;;;;;;66.45;34.08;;;;;;;5.66;96.64;102279.38;5034282;28;20053;-77
2021/04/19 02:22:34;;;;;;;72.35;34.47;;;;;;;5.65;96.89;102272.47;5030295;28;20048;-76
2021/04/19 02:25:10;;;;;;;71.63;35.47;;;;;;;5.61;97.48;102279.63;5053736;28;20632;-78
2021/04/19 02:27:38;;;;;;;75.30;36.50;;;;;;;5.60;96.99;102279.69;5033132;28;20382;-78
2021/04/19 02:30:11;;;;;;;73.85;36.13;;;;;;;5.54;97.39;102278.25;5051187;28;20044;-77
2021/04/19 02:32:43;;;;;;;68.82;35.30;;;;;;;5.58;97.62;102271.97;5036947;28;20036;-79
2021/04/19 02:35:12;;;;;;;68.70;35.50;;;;;;;5.62;97.26;102270.88;5017943;28;20060;-80
2021/04/19 02:37:47;;;;;;;62.63;33.90;;;;;;;5.68;97.09;102277.53;5017652;28;20186;-78
2021/04/19 02:40:15;;;;;;;74.85;36.28;;;;;;;5.65;96.85;102275.94;5033243;28;20748;-78
2021/04/19 02:42:45;;;;;;;63.92;33.10;;;;;;;5.72;96.95;102279.06;5021672;28;20055;-79
2021/04/19 02:45:14;;;;;;;65.28;33.45;;;;;;;5.73;97.00;102279.94;5033318;28;20051;-79
2021/04/19 02:47:51;;;;;;;67.68;34.58;;;;;;;5.69;97.07;102270.56;5020382;28;20044;-79
2021/04/19 02:50:32;;;;;;;71.45;34.75;;;;;;;5.73;97.00;102277.34;5019940;28;20044;-76
2021/04/19 02:53:00;;;;;;;63.42;33.38;;;;;;;5.73;96.86;102282.53;5051053;28;20473;-78
2021/04/19 02:55:28;;;;;;;62.25;32.78;;;;;;;5.72;96.39;102271.25;5044387;28;20105;-78
2021/04/19 02:58:02;;;;;;;59.75;32.17;;;;;;;5.76;96.47;102270.19;5036253;28;20078;-77
2021/04/19 03:00:32;;;;;;;61.70;33.15;;;;;;;5.71;96.47;102261.78;5039520;28;20036;-76
2021/04/19 03:03:01;;;;;;;58.05;32.60;;;;;;;5.67;96.41;102273.28;5053816;28;20044;-79
2021/04/19 03:05:29;;;;;;;67.90;33.78;;;;;;;5.69;96.51;102280.97;5047009;28;20047;-77
2021/04/19 03:08:00;;;;;;;68.55;35.42;;;;;;;5.65;96.81;102275.09;5030127;28;20449;-80
2021/04/19 03:10:32;;;;;;;73.40;35.33;;;;;;;5.66;97.16;102279.38;5033168;28;20045;-79
2021/04/19 03:13:00;;;;;;;64.30;33.40;;;;;;;5.66;97.14;102279.38;5015257;28;20041;-79
2021/04/19 03:15:33;;;;;;;65.22;34.33;;;;;;;5.68;97.29;102266.28;5035836;28;20068;-77
2021/04/19 03:18:11;;;;;;;58.13;32.30;;;;;;;5.68;96.84;102264.53;5020154;28;20044;-77
2021/04/19 03:21:03;;;;;;;64.32;33.33;;;;;;;5.68;96.51;102264.53;5033557;28;20052;-79
2021/04/19 03:23:30;;;;;;;63.13;35.10;;;;;;;5.68;96.94;102268.91;5019116;28;20103;-77
2021/04/19 03:25:58;;;;;;;64.97;34.67;;;;;;;5.71;96.84;102269.59;5031006;28;20032;-79
2021/04/19 03:28:26;;;;;;;61.95;33.75;;;;;;;5.71;97.03;102266.97;5048801;28;20045;-77
2021/04/19 03:31:06;;;;;;;65.93;34.88;;;;;;;5.69;96.72;102270.56;5039722;28;20418;-78
2021/04/19 03:33:40;;;;;;;59.78;32.67;;;;;;;5.68;96.41;102266.28;5018472;28;20029;-77
2021/04/19 03:36:08;;;;;;;69.13;34.10;;;;;;;5.67;96.79;102260.25;5050922;28;20052;-80
2021/04/19 03:38:37;;;;;;;78.85;35.45;;;;;;;5.63;97.22;102266.50;5054635;28;20041;-81
2021/04/19 03:41:04;;;;;;;75.65;35.97;;;;;;;5.53;97.16;102266.13;5055454;28;20086;-77
2021/04/19 03:43:32;;;;;;;63.08;33.55;;;;;;;5.58;97.23;102269.34;5064625;28;20045;-77
2021/04/19 03:46:15;;;;;;;59.35;32.40;;;;;;;5.59;97.03;102275.41;5052698;28;20044;-77
2021/04/19 03:49:05;;;;;;;59.58;32.22;;;;;;;5.60;96.92;102277.09;5038823;28;20039;-75
2021/04/19 03:51:43;;;;;;;55.97;31.80;;;;;;;5.55;96.68;102274.72;5051020;28;20041;-79
2021/04/19 03:54:11;;;;;;;63.28;33.78;;;;;;;5.50;96.85;102274.13;5058308;28;20063;-77
2021/04/19 03:56:39;;;;;;;61.45;33.63;;;;;;;5.32;97.02;102272.41;5053697;28;20085;-78
2021/04/19 03:59:14;;;;;;;70.55;33.25;;;;;;;5.23;97.44;102276.28;5071734;28;20513;-77
2021/04/19 04:01:47;;;;;;;68.47;33.65;;;;;;;5.17;97.85;102274.81;5050402;28;20044;-77
2021/04/19 04:04:15;;;;;;;70.55;35.88;;;;;;;5.24;98.14;102278.00;5044765;28;20055;-78
2021/04/19 04:07:02;;;;;;;62.47;34.85;;;;;;;5.09;98.27;102265.72;5070351;28;20319;-77
2021/04/19 04:09:35;;;;;;;67.20;34.88;;;;;;;5.12;98.54;102274.19;5075413;28;20066;-77
2021/04/19 04:12:02;;;;;;;62.97;33.72;;;;;;;5.25;98.42;102261.44;5076726;28;20051;-78
2021/04/19 04:14:34;;;;;;;63.90;36.85;;;;;;;5.23;97.59;102256.31;5087874;28;20085;-79
2021/04/19 04:17:01;;;;;;;65.88;34.55;;;;;;;5.23;98.14;102255.47;5039149;28;20130;-78
2021/04/19 04:19:49;;;;;;;71.80;37.45;;;;;;;5.27;97.68;102264.81;5059709;28;21046;-80
2021/04/19 04:22:16;;;;;;;68.15;35.95;;;;;;;5.24;97.86;102257.19;5037948;28;20121;-80
2021/04/19 04:24:46;;;;;;;61.72;33.40;;;;;;;5.27;98.23;102264.81;5052411;28;20044;-79
2021/04/19 04:27:12;;;;;;;75.03;36.20;;;;;;;5.24;97.70;102258.00;5037639;28;20414;-77
2021/04/19 04:29:42;;;;;;;85.40;38.97;;;;;;;5.28;98.34;102266.50;5054349;28;20047;-77
2021/04/19 04:32:30;;;;;;;73.15;36.65;;;;;;;5.21;97.97;102265.13;5063505;28;20063;-78
2021/04/19 04:35:08;;;;;;;78.78;38.70;;;;;;;5.27;97.80;102270.00;5038322;28;20406;-77
2021/04/19 04:37:37;;;;;;;68.88;35.88;;;;;;;5.28;98.43;102271.72;5037160;28;20687;-77
2021/04/19 04:40:12;;;;;;;65.97;36.38;;;;;;;5.26;97.83;102276.16;5048036;28;20073;-78
2021/04/19 04:42:43;;;;;;;73.38;36.65;;;;;;;5.23;98.01;102278.88;5054266;28;20173;-76
2021/04/19 04:45:09;;;;;;;73.07;35.45;;;;;;;5.12;98.15;102275.97;5051568;28;21514;-78
2021/04/19 04:48:20;;;;;;;73.65;36.65;;;;;;;5.19;98.71;102273.00;5034351;28;20044;-75
2021/04/19 04:50:51;;;;;;;71.95;36.08;;;;;;;5.20;98.14;102279.91;5024446;28;20040;-79
2021/04/19 04:53:26;;;;;;;77.32;38.55;;;;;;;5.23;98.59;102273.69;5050002;28;20133;-79
2021/04/19 04:55:55;;;;;;;75.70;39.00;;;;;;;5.27;98.67;102285.63;5071170;28;20581;-78
2021/04/19 04:58:22;;;;;;;87.90;36.67;;;;;;;5.10;98.63;102278.63;5054027;28;20107;-79
2021/04/19 05:00:49;;;;;;;80.80;36.55;;;;;;;5.06;98.87;102283.13;5045935;28;20051;-79
2021/04/19 05:03:16;;;;;;;65.88;35.60;;;;;;;5.04;98.38;102291.94;5047237;28;20166;-76
2021/04/19 05:05:45;;;;;;;79.25;35.58;;;;;;;5.01;99.11;102299.88;5072056;28;20082;-77
2021/04/19 05:08:11;;;;;;;68.40;35.15;;;;;;;4.95;98.86;102303.59;5046254;28;20082;-79
2021/04/19 05:10:38;;;;;;;70.50;35.85;;;;;;;5.00;99.48;102296.44;5059578;28;20051;-78
2021/04/19 05:13:15;;;;;;;63.08;34.05;;;;;;;5.10;99.41;102289.03;5073243;28;20054;-79
2021/04/19 05:15:46;;;;;;;59.00;32.35;;;;;;;5.19;98.88;102283.41;5069336;28;20045;-76
2021/04/19 05:18:16;;;;;;;52.70;30.10;;;;;;;5.23;98.71;102271.91;5044966;28;20056;-80
2021/04/19 05:20:42;;;;;;;51.25;29.77;;;;;;;5.28;97.83;102286.50;5084731;28;20043;-80
2021/04/19 05:23:09;;;;;;;55.70;30.33;;;;;;;5.33;98.04;102280.16;5060491;28;20044;-78
2021/04/19 05:25:35;;;;;;;55.67;31.02;;;;;;;5.37;97.41;102279.06;5041626;28;20393;-78
2021/04/19 05:28:02;;;;;;;55.08;31.58;;;;;;;5.43;97.70;102290.94;5080622;28;20401;-79
2021/04/19 05:30:28;;;;;;;53.17;28.25;;;;;;;5.37;97.05;102301.63;5050836;28;20059;-76
2021/04/19 05:32:54;;;;;;;51.50;30.15;;;;;;;5.33;97.20;102290.56;5047029;28;20425;-78
2021/04/19 05:35:21;;;;;;;52.75;30.58;;;;;;;5.38;97.09;102295.53;5049362;28;20038;-78
2021/04/19 05:37:48;;;;;;;49.00;29.10;;;;;;;5.42;96.97;102294.44;5040109;28;20035;-76
2021/04/19 05:40:15;;;;;;;51.47;29.80;;;;;;;5.45;97.07;102305.56;5052133;28;20044;-79
2021/04/19 05:42:41;;;;;;;53.25;29.60;;;;;;;5.48;96.63;102307.16;5033135;28;20044;-77
2021/04/19 05:45:07;;;;;;;50.92;28.73;;;;;;;5.47;97.19;102306.31;5034054;28;20048;-78
2021/04/19 05:47:33;;;;;;;59.45;32.28;;;;;;;5.44;97.79;102300.41;5035908;28;20494;-77
2021/04/19 05:49:59;;;;;;;61.70;32.60;;;;;;;5.39;98.14;102305.03;5032773;28;20053;-77
2021/04/19 05:52:25;;;;;;;66.60;32.25;;;;;;;5.28;97.78;102305.53;5047143;28;20505;-79
2021/04/19 05:54:51;;;;;;;66.97;33.60;;;;;;;5.21;97.84;102304.97;5054685;28;20055;-81
2021/04/19 05:57:34;;;;;;;57.95;31.65;;;;;;;5.34;98.09;102307.84;5052500;28;20044;-77
2021/04/19 06:00:09;;;;;;;;;;;;;;;5.31;98.67;102313.19;5036328;28;20135;-79
2021/04/19 06:03:01;;;;;;;63.17;32.10;;;;;;;5.39;98.38;102315.44;5069687;28;19920;-77
2021/04/19 06:05:34;;;;;;;73.35;32.85;;;;;;;5.36;98.68;102315.56;5072626;28;20489;-77
2021/04/19 06:08:18;;;;;;;64.40;32.13;;;;;;;5.38;98.83;102309.38;5069361;28;20036;-80
2021/04/19 06:10:49;;;;;;;54.58;31.17;;;;;;;5.41;97.85;102311.00;5057850;28;20044;-75
2021/04/19 06:13:27;;;;;;;56.13;31.20;;;;;;;5.52;97.58;102318.25;5072377;28;20190;-77
2021/04/19 06:15:54;;;;;;;45.45;29.33;;;;;;;5.55;97.86;102312.91;5046697;28;20839;-74
2021/04/19 06:18:25;;;;;;;48.40;28.90;;;;;;;5.56;96.63;102317.22;5065081;28;20028;-77
2021/04/19 06:20:53;;;;;;;48.95;29.00;;;;;;;5.57;96.66;102327.53;5036574;28;20044;-78
2021/04/19 06:23:19;;;;;;;49.00;28.02;;;;;;;5.58;96.76;102311.00;5057469;28;20074;-79
2021/04/19 06:25:45;;;;;;;47.58;29.38;;;;;;;5.60;96.64;102310.94;5056471;28;20070;-77
2021/04/19 06:28:10;;;;;;;40.13;25.75;;;;;;;5.61;96.67;102323.03;5056950;28;20513;-79
2021/04/19 06:30:42;;;;;;;62.25;28.60;;;;;;;5.37;97.00;102314.63;5038385;28;20075;-79
2021/04/19 06:33:13;;;;;;;53.97;28.10;;;;;;;5.50;97.43;102320.09;5037744;28;20047;-77
2021/04/19 06:35:38;;;;;;;60.35;26.73;;;;;;;5.45;96.47;102325.53;5058161;28;20067;-79
2021/04/19 06:38:04;;;;;;;56.08;26.48;;;;;;;5.37;96.99;102325.03;5090257;28;20087;-78
2021/04/19 06:40:30;;;;;;;50.03;27.02;;;;;;;5.46;96.95;102322.88;5057438;28;20072;-79
2021/04/19 06:42:58;;;;;;;67.30;28.40;;;;;;;5.24;97.20;102332.63;5037688;28;20041;-78
2021/04/19 06:45:24;;;;;;;62.75;28.65;;;;;;;5.12;97.95;102338.38;5034538;28;20047;-79
2021/04/19 06:47:52;;;;;;;72.72;28.98;;;;;;;5.15;98.35;102344.28;5050664;28;20044;-78
2021/04/19 06:50:18;;;;;;;57.63;27.73;;;;;;;5.22;97.67;102339.66;5061334;28;20045;-79
2021/04/19 06:52:47;;;;;;;54.50;27.92;;;;;;;5.23;97.25;102344.75;5025540;28;20045;-77
2021/04/19 06:55:16;;;;;;;57.80;27.65;;;;;;;5.31;97.18;102335.75;5033710;28;20051;-79
2021/04/19 06:57:48;;;;;;;61.25;26.80;;;;;;;5.33;97.13;102334.78;5054864;28;20041;-78
2021/04/19 07:00:14;;;;;;;47.93;26.60;;;;;;;5.17;97.00;102337.25;5061871;28;20044;-79
2021/04/19 07:02:47;;;;;;;42.38;25.63;;;;;;;5.27;96.58;102340.25;5047701;28;20075;-78
2021/04/19 07:05:17;;;;;;;47.67;26.17;;;;;;;5.30;97.01;102332.31;5073927;28;20279;-79
2021/04/19 07:07:49;;;;;;;50.35;28.20;;;;;;;5.32;97.05;102327.06;5057000;28;20044;-77
2021/04/19 07:10:16;;;;;;;37.13;22.90;;;;;;;5.53;96.91;102330.38;5044004;28;20094;-77
2021/04/19 07:12:43;;;;;;;40.22;24.33;;;;;;;5.55;95.82;102331.13;5050403;28;20036;-79
2021/04/19 07:15:09;;;;;;;38.08;24.15;;;;;;;5.65;95.87;102324.53;5063711;28;20204;-77
2021/04/19 07:17:35;;;;;;;41.88;24.38;;;;;;;5.69;94.80;102318.28;5027164;28;20033;-77
2021/04/19 07:20:03;;;;;;;43.90;26.52;;;;;;;5.57;96.40;102337.09;5047828;28;20056;-78
2021/04/19 07:22:29;;;;;;;39.53;24.95;;;;;;;5.63;96.68;102334.19;5058739;28;20051;-77
2021/04/19 07:24:55;;;;;;;39.75;24.63;;;;;;;5.74;96.30;102329.31;5055602;28;20068;-77
2021/04/19 07:27:20;;;;;;;41.28;24.42;;;;;;;5.71;95.83;102318.19;5040141;28;20055;-78
2021/04/19 07:29:46;;;;;;;40.17;24.50;;;;;;;5.66;95.71;102318.44;5032838;28;20070;-78
2021/04/19 07:32:12;;;;;;;36.55;24.10;;;;;;;5.90;94.73;102318.97;5035811;28;20695;-79
2021/04/19 07:34:37;;;;;;;37.95;23.75;;;;;;;6.00;94.17;102329.81;5053434;28;20066;-77
2021/04/19 07:37:05;;;;;;;33.95;22.08;;;;;;;5.98;94.85;102321.22;5067230;28;20048;-79
2021/04/19 07:39:37;;;;;;;38.45;21.30;;;;;;;5.87;94.50;102319.13;5068826;28;20045;-77
2021/04/19 07:42:06;;;;;;;32.65;21.15;;;;;;;5.98;94.63;102329.03;5068964;28;20056;-77
2021/04/19 07:44:51;;;;;;;31.58;19.65;;;;;;;6.21;93.00;102328.69;5049071;28;20090;-78
2021/04/19 07:47:26;;;;;;;31.05;20.33;;;;;;;6.26;92.91;102320.66;5048864;28;20172;-78
2021/04/19 07:50:21;;;;;;;34.15;21.05;;;;;;;6.34;92.64;102322.84;5016077;28;20406;-78
2021/04/19 07:52:46;;;;;;;29.55;19.10;;;;;;;6.41;92.47;102319.84;5059919;28;20040;-78
2021/04/19 07:55:15;;;;;;;37.55;20.55;;;;;;;6.28;92.80;102321.41;5051691;28;20063;-76
2021/04/19 07:57:41;;;;;;;34.08;21.30;;;;;;;6.39;92.10;102319.09;5057256;28;20411;-78
2021/04/19 08:00:09;;;;;;;33.90;21.20;;;;;;;6.49;91.93;102310.78;5034114;28;20048;-77
2021/04/19 08:02:41;;;;;;;35.38;22.33;;;;;;;6.45;93.23;102311.88;5036163;28;20049;-79
2021/04/19 08:05:07;;;;;;;34.63;20.30;;;;;;;6.58;92.40;102324.16;5031998;28;20041;-81
2021/04/19 08:07:33;;;;;;;28.65;19.15;;;;;;;6.73;92.10;102316.44;5062676;28;20502;-78
2021/04/19 08:10:07;;;;;;;34.08;20.98;;;;;;;6.81;91.11;102302.06;5067521;28;20052;-77
2021/04/19 08:12:41;;;;;;;36.03;21.52;;;;;;;6.91;91.59;102309.38;5039289;28;20081;-78
2021/04/19 08:15:13;;;;;;;38.30;23.35;;;;;;;6.87;91.83;102316.53;5080857;28;20064;-78
2021/04/19 08:17:39;;;;;;;41.35;24.25;;;;;;;6.88;92.07;102314.78;5060978;28;20048;-76
2021/04/19 08:20:07;;;;;;;41.60;23.92;;;;;;;6.93;92.51;102316.22;5048763;28;20510;-77
2021/04/19 08:22:32;;;;;;;40.70;24.15;;;;;;;7.13;91.43;102324.69;5044222;28;20101;-76
2021/04/19 08:25:10;;;;;;;40.72;22.33;;;;;;;7.36;91.21;102323.41;5036022;28;20402;-78
2021/04/19 08:27:36;;;;;;;35.03;21.55;;;;;;;7.51;91.13;102316.47;5050683;28;20418;-77
2021/04/19 08:30:03;;;;;;;32.58;21.17;;;;;;;7.56;91.10;102311.81;5032983;28;20036;-78
2021/04/19 08:32:31;;;;;;;35.03;20.65;;;;;;;7.65;90.18;102313.91;5079247;28;20033;-79
2021/04/19 08:34:57;;;;;;;36.35;21.63;;;;;;;7.67;89.37;102316.44;5050738;28;20044;-79
2021/04/19 08:37:28;;;;;;;35.70;22.63;;;;;;;7.74;89.54;102325.56;5065955;28;20048;-79
2021/04/19 08:40:00;;;;;;;37.63;22.95;;;;;;;7.87;90.16;102325.69;5034876;28;20124;-77
2021/04/19 08:42:27;;;;;;;37.50;21.98;;;;;;;7.99;87.68;102325.00;5057250;28;20037;-77
2021/04/19 08:44:58;;;;;;;33.97;20.45;;;;;;;8.10;86.47;102319.97;5011003;28;20068;-77
2021/04/19 08:47:27;;;;;;;38.03;22.02;;;;;;;8.27;87.39;102331.16;5034772;28;20511;-79
2021/04/19 08:49:55;;;;;;;36.15;22.63;;;;;;;8.34;87.42;102337.72;5027571;28;20052;-77
2021/04/19 08:52:21;;;;;;;32.72;21.23;;;;;;;8.33;86.52;102336.88;5021886;28;20902;-79
2021/04/19 08:54:47;;;;;;;35.15;21.40;;;;;;;8.43;85.56;102338.97;5019118;28;20044;-76
2021/04/19 08:57:14;;;;;;;32.35;21.85;;;;;;;8.37;86.17;102340.16;5032282;28;20705;-78
2021/04/19 08:59:43;;;;;;;34.10;21.70;;;;;;;8.31;86.60;102337.91;5016882;28;20045;-78
2021/04/19 09:02:10;;;;;;;36.90;21.70;;;;;;;8.44;85.81;102338.88;5012222;28;20056;-78
2021/04/19 09:04:36;;;;;;;30.58;19.48;;;;;;;8.57;85.56;102326.72;5029361;28;20051;-78
2021/04/19 09:07:03;;;;;;;35.38;21.15;;;;;;;8.85;85.06;102338.06;5013723;28;20040;-79
2021/04/19 09:09:31;;;;;;;29.83;20.92;;;;;;;8.99;83.72;102341.63;5014372;28;20075;-77
2021/04/19 09:11:57;;;;;;;29.70;19.55;;;;;;;9.00;83.86;102344.13;5017874;28;20506;-79
2021/04/19 09:14:33;;;;;;;35.85;21.98;;;;;;;8.80;84.72;102337.53;5035746;28;20130;-78
2021/04/19 09:17:00;;;;;;;31.58;20.23;;;;;;;8.87;85.59;102346.69;5015047;28;20108;-76
2021/04/19 09:19:26;;;;;;;31.00;20.10;;;;;;;9.17;84.44;102345.66;5026151;28;20095;-76
2021/04/19 09:21:51;;;;;;;33.05;20.45;;;;;;;8.95;84.14;102338.38;5034123;28;20044;-76
2021/04/19 09:24:20;;;;;;;35.20;20.92;;;;;;;8.98;83.93;102340.75;5054937;28;20421;-80
2021/04/19 09:26:58;;;;;;;29.55;20.73;;;;;;;9.43;83.40;102340.53;5030460;28;20052;-79
2021/04/19 09:29:30;;;;;;;29.98;19.38;;;;;;;9.63;81.37;102339.25;5051338;28;20472;-78
2021/04/19 09:32:05;;;;;;;32.30;19.83;;;;;;;9.81;82.03;102345.88;5030327;28;20072;-77
2021/04/19 09:34:53;;;;;;;28.63;20.00;;;;;;;10.01;80.09;102336.69;5041355;28;20395;-78
2021/04/19 09:37:43;;;;;;;27.83;19.45;;;;;;;10.03;79.79;102341.81;5012550;28;20049;-78
2021/04/19 09:40:16;;;;;;;29.73;20.02;;;;;;;9.94;79.93;102336.25;5012632;28;20044;-78
2021/04/19 09:43:02;;;;;;;32.20;20.65;;;;;;;9.84;80.85;102337.81;5036517;28;20060;-77
2021/04/19 09:45:46;;;;;;;29.60;20.25;;;;;;;10.11;80.73;102340.38;5052538;28;20051;-78
2021/04/19 09:48:27;;;;;;;27.95;18.83;;;;;;;10.32;79.32;102340.72;5041350;28;20124;-79
2021/04/19 09:51:13;;;;;;;28.40;19.70;;;;;;;10.61;78.50;102335.22;5059338;28;20044;-78
2021/04/19 09:53:41;;;;;;;31.15;20.70;;;;;;;10.44;79.89;102336.38;5034201;28;20060;-78
2021/04/19 09:56:08;;;;;;;26.42;18.83;;;;;;;10.26;78.30;102320.09;5056498;28;20049;-77
2021/04/19 09:58:37;;;;;;;27.45;19.65;;;;;;;10.26;79.52;102330.59;5049742;28;20041;-79
2021/04/19 10:01:03;;;;;;;28.05;20.02;;;;;;;10.32;80.02;102329.34;5048446;28;20046;-80
2021/04/19 10:03:29;;;;;;;34.00;20.95;;;;;;;10.34;79.39;102327.50;5080334;28;20132;-80
2021/04/19 10:05:59;;;;;;;26.55;18.85;;;;;;;10.56;79.54;102328.59;5049481;28;20093;-79
2021/04/19 10:08:26;;;;;;;26.13;18.38;;;;;;;11.08;77.59;102328.34;5042302;28;20131;-78
2021/04/19 10:10:53;;;;;;;24.83;18.40;;;;;;;11.39;76.46;102328.72;5040809;28;20047;-77
2021/04/19 10:13:31;;;;;;;26.33;17.73;;;;;;;11.22;77.04;102319.47;5038363;28;20171;-76
2021/04/19 10:16:01;;;;;;;24.42;17.30;;;;;;;11.41;76.11;102323.38;5041169;28;20036;-78
2021/04/19 10:18:34;;;;;;;24.00;18.13;;;;;;;11.65;75.86;102321.53;5064518;28;20044;-77
2021/04/19 10:21:00;;;;;;;26.73;18.60;;;;;;;11.74;75.05;102320.03;5063137;28;20044;-78
2021/04/19 10:23:35;;;;;;;27.63;19.52;;;;;;;11.32;75.91;102319.66;5057268;28;20060;-79
2021/04/19 10:26:01;;;;;;;27.50;18.42;;;;;;;11.40;76.33;102317.28;5037168;28;20125;-78
2021/04/19 10:28:28;;;;;;;25.30;17.73;;;;;;;11.71;76.40;102314.16;5032405;28;20051;-78
2021/04/19 10:31:21;;;;;;;30.55;18.92;;;;;;;11.92;75.42;102309.91;5057665;28;20045;-80
2021/04/19 10:33:52;;;;;;;27.00;18.23;;;;;;;11.78;75.49;102310.94;5055838;28;20045;-79
2021/04/19 10:36:23;;;;;;;26.60;18.27;;;;;;;12.03;73.61;102301.22;5055260;28;20053;-78
2021/04/19 10:38:57;;;;;;;23.75;17.58;;;;;;;12.21;73.85;102304.25;5040056;28;20116;-78
2021/04/19 10:41:33;;;;;;;23.70;16.60;;;;;;;12.57;72.73;102305.78;5047989;28;20067;-75
2021/04/19 10:44:00;;;;;;;22.45;16.42;;;;;;;12.72;70.66;102305.53;5048066;28;20398;-79
2021/04/19 10:46:34;;;;;;;22.05;15.32;;;;;;;12.78;70.44;102297.94;5050581;28;20036;-76
2021/04/19 10:49:01;;;;;;;23.20;16.45;;;;;;;12.66;70.33;102293.69;5030144;28;20760;-78
2021/04/19 10:51:32;;;;;;;22.77;15.95;;;;;;;12.79;71.02;102294.38;5059401;28;20072;-77
2021/04/19 10:54:01;;;;;;;21.65;15.68;;;;;;;12.80;69.94;102289.94;5052910;28;20505;-78
2021/04/19 10:56:28;;;;;;;23.00;15.88;;;;;;;13.02;70.71;102291.69;5045885;28;20045;-78
2021/04/19 10:58:59;;;;;;;20.70;15.27;;;;;;;13.02;69.82;102287.25;5053757;28;20036;-78
2021/04/19 11:01:29;;;;;;;20.95;15.35;;;;;;;13.23;70.54;102287.28;5076361;28;20036;-80
2021/04/19 11:03:56;;;;;;;23.00;16.75;;;;;;;13.39;69.23;102279.00;5053613;28;20053;-77
2021/04/19 11:06:23;;;;;;;20.85;16.15;;;;;;;13.40;69.06;102274.53;5056503;28;20070;-77
2021/04/19 11:08:53;;;;;;;20.70;15.75;;;;;;;13.36;70.38;102278.41;5058459;28;20044;-78
2021/04/19 11:11:40;;;;;;;20.63;15.07;;;;;;;13.55;69.76;102283.81;5055812;28;20101;-77
2021/04/19 11:14:19;;;;;;;18.88;15.32;;;;;;;13.59;67.20;102281.75;5052142;28;20049;-78
2021/04/19 11:16:52;;;;;;;19.33;15.13;;;;;;;13.44;68.45;102271.50;5051271;28;20955;-77
2021/04/19 11:19:43;;;;;;;24.85;15.55;;;;;;;13.48;68.09;102274.72;5069212;28;20047;-78
2021/04/19 11:22:28;;;;;;;19.63;15.73;;;;;;;13.57;68.71;102271.31;5057308;28;20060;-77
2021/04/19 11:25:09;;;;;;;20.63;15.15;;;;;;;13.60;68.04;102260.53;5039439;28;20082;-78
2021/04/19 11:27:35;;;;;;;20.52;14.23;;;;;;;13.85;66.12;102257.63;5059372;28;20041;-77
2021/04/19 11:30:00;;;;;;;19.27;14.50;;;;;;;14.05;65.21;102253.25;5035360;28;20114;-77
2021/04/19 11:32:34;;;;;;;16.48;13.73;;;;;;;14.14;65.73;102248.00;5032350;28;20041;-76